createdAt,value
2023-02-09T00:04:02.046Z,21.40
2023-02-09T00:09:04.253Z,18.85
2023-02-09T00:14:06.524Z,18.15
2023-02-09T00:19:10.565Z,17.90
2023-02-09T00:24:14.273Z,17.05
2023-02-09T00:29:17.463Z,15.43
2023-02-09T00:34:21.084Z,15.45
2023-02-09T00:39:23.486Z,15.40
2023-02-09T00:44:25.886Z,15.90
2023-02-09T00:49:30.025Z,15.40
2023-02-09T00:54:32.348Z,17.53
2023-02-09T00:59:35.884Z,18.13
2023-02-09T01:04:39.638Z,15.57
2023-02-09T01:09:41.987Z,17.23
2023-02-09T01:14:44.386Z,15.88
2023-02-09T01:19:52.173Z,17.20
2023-02-09T01:24:55.063Z,16.15
2023-02-09T01:29:57.451Z,15.88
2023-02-09T01:35:01.302Z,17.75
2023-02-09T01:40:05.555Z,18.02
2023-02-09T01:45:25.191Z,17.67
2023-02-09T01:50:34.995Z,17.60
2023-02-09T01:55:52.857Z,21.73
2023-02-09T02:00:55.294Z,27.58
2023-02-09T02:06:09.152Z,22.08
2023-02-09T02:11:12.193Z,18.80
2023-02-09T02:16:33.805Z,18.15
2023-02-09T02:22:30.425Z,18.48
2023-02-09T02:27:43.491Z,17.27
2023-02-09T02:33:00.837Z,17.60
2023-02-09T02:38:16.328Z,18.97
2023-02-09T02:43:32.381Z,18.15
2023-02-09T02:48:42.399Z,20.05
2023-02-09T02:53:51.018Z,18.90
2023-02-09T02:58:58.727Z,19.45
2023-02-09T03:04:07.015Z,18.57
2023-02-09T03:09:09.677Z,18.33
2023-02-09T03:14:41.383Z,20.00
2023-02-09T03:19:56.437Z,18.45
2023-02-09T03:25:05.459Z,19.42
2023-02-09T03:30:13.371Z,19.27
2023-02-09T03:35:20.210Z,19.63
2023-02-09T03:40:22.406Z,19.55
2023-02-09T03:45:24.530Z,21.23
2023-02-09T03:50:28.087Z,19.67
2023-02-09T03:55:30.193Z,20.27
2023-02-09T04:00:32.506Z,20.30
2023-02-09T04:05:36.227Z,20.45
2023-02-09T04:10:38.549Z,20.65
2023-02-09T04:15:40.738Z,20.17
2023-02-09T04:20:44.699Z,21.97
2023-02-09T04:25:47.238Z,20.45
2023-02-09T04:30:53.348Z,22.02
2023-02-09T04:35:57.549Z,21.92
2023-02-09T04:41:07.518Z,22.40
2023-02-09T04:46:13.579Z,21.37
2023-02-09T04:51:17.634Z,22.17
2023-02-09T04:56:20.124Z,23.77
2023-02-09T05:01:24.668Z,24.42
2023-02-09T05:06:31.534Z,22.20
2023-02-09T05:11:33.753Z,23.70
2023-02-09T05:16:37.640Z,24.45
2023-02-09T05:21:42.598Z,22.33
2023-02-09T05:26:44.862Z,21.30
2023-02-09T05:31:47.374Z,23.70
2023-02-09T05:36:51.131Z,22.77
2023-02-09T05:41:53.554Z,24.63
2023-02-09T05:46:56.676Z,20.98
2023-02-09T05:52:00.812Z,22.65
2023-02-09T05:57:04.153Z,22.63
2023-02-09T06:02:07.336Z,23.90
2023-02-09T06:07:12.110Z,22.52
2023-02-09T06:12:14.701Z,21.50
2023-02-09T06:17:17.022Z,26.67
2023-02-09T06:22:20.704Z,25.30
2023-02-09T06:27:23.377Z,23.50
2023-02-09T06:32:26.128Z,22.33
2023-02-09T06:37:30.024Z,22.58
2023-02-09T06:42:32.545Z,22.92
2023-02-09T06:47:35.009Z,24.33
2023-02-09T06:52:39.289Z,22.03
2023-02-09T06:57:45.018Z,23.73
2023-02-09T07:02:50.951Z,22.60
2023-02-09T07:07:57.131Z,21.65
2023-02-09T07:12:59.545Z,27.75
2023-02-09T07:18:02.034Z,22.97
2023-02-09T07:23:06.718Z,23.67
2023-02-09T07:28:10.131Z,21.23
2023-02-09T07:33:13.099Z,21.27
2023-02-09T07:38:16.853Z,22.13
2023-02-09T07:43:19.888Z,20.33
2023-02-09T07:48:22.401Z,24.25
2023-02-09T07:53:26.743Z,23.98
2023-02-09T07:58:35.477Z,21.67
2023-02-09T08:03:42.798Z,23.38
2023-02-09T08:08:48.042Z,21.43
2023-02-09T08:13:56.772Z,22.55
2023-02-09T08:19:03.672Z,23.20
2023-02-09T08:24:12.890Z,22.05
2023-02-09T08:29:15.327Z,20.63
2023-02-09T08:34:17.744Z,25.00
2023-02-09T08:39:23.576Z,25.27
2023-02-09T08:44:26.567Z,24.52
2023-02-09T08:49:29.164Z,24.63
2023-02-09T08:54:33.039Z,24.38
2023-02-09T08:59:35.790Z,24.90
2023-02-09T09:04:38.192Z,27.58
2023-02-09T09:09:41.971Z,27.33
2023-02-09T09:14:44.496Z,24.95
2023-02-09T09:19:47.202Z,24.65
2023-02-09T09:24:51.558Z,28.40
2023-02-09T09:29:54.164Z,25.17
2023-02-09T09:34:59.380Z,24.55
2023-02-09T09:40:03.905Z,25.25
2023-02-09T09:45:13.995Z,28.27
2023-02-09T09:50:22.316Z,24.87
2023-02-09T09:55:29.737Z,25.65
2023-02-09T10:00:36.663Z,25.95
2023-02-09T10:05:40.259Z,26.55
2023-02-09T10:10:55.008Z,25.40
2023-02-09T10:15:58.776Z,34.10
2023-02-09T10:21:06.195Z,25.67
2023-02-09T10:26:24.122Z,28.13
2023-02-09T10:31:33.090Z,26.98
2023-02-09T10:36:46.587Z,27.58
2023-02-09T10:41:54.421Z,27.77
2023-02-09T10:47:11.295Z,26.05
2023-02-09T10:52:20.362Z,28.63
2023-02-09T10:57:28.306Z,25.30
2023-02-09T11:02:41.222Z,31.02
2023-02-09T11:07:44.614Z,30.53
2023-02-09T11:12:48.628Z,27.88
2023-02-09T11:17:54.542Z,26.70
2023-02-09T11:23:26.425Z,25.70
2023-02-09T11:28:46.150Z,26.17
2023-02-09T11:34:00.446Z,28.33
2023-02-09T11:39:13.604Z,28.17
2023-02-09T11:44:27.838Z,26.48
2023-02-09T11:49:43.183Z,25.95
2023-02-09T11:54:51.698Z,24.13
2023-02-09T12:00:03.207Z,26.57
2023-02-09T12:05:10.276Z,26.88
2023-02-09T12:10:24.460Z,23.55
2023-02-09T12:15:38.073Z,25.42
2023-02-09T12:20:53.169Z,24.42
2023-02-09T12:25:57.716Z,24.53
2023-02-09T12:31:24.562Z,25.95
2023-02-09T12:36:31.861Z,26.10
2023-02-09T12:42:25.342Z,28.25
2023-02-09T12:47:45.148Z,24.00
2023-02-09T12:53:32.367Z,24.63
2023-02-09T12:58:38.275Z,25.45
2023-02-09T13:03:51.396Z,25.70
2023-02-09T13:08:58.802Z,25.23
2023-02-09T13:14:05.129Z,25.30
2023-02-09T13:19:25.358Z,25.83
2023-02-09T13:24:39.005Z,24.83
2023-02-09T13:29:49.905Z,26.42
2023-02-09T13:35:00.129Z,28.83
2023-02-09T13:40:15.287Z,29.50
2023-02-09T13:45:19.343Z,30.53
2023-02-09T13:50:25.640Z,30.80
2023-02-09T13:55:29.702Z,27.58
2023-02-09T14:00:41.163Z,29.30
2023-02-09T14:05:54.414Z,31.48
2023-02-09T14:11:07.518Z,30.90
2023-02-09T14:16:15.401Z,27.23
2023-02-09T14:21:24.406Z,29.10
2023-02-09T14:26:29.980Z,28.33
2023-02-09T14:31:35.788Z,31.25
2023-02-09T14:36:39.545Z,30.70
2023-02-09T14:41:41.889Z,29.77
2023-02-09T14:46:53.304Z,31.20
2023-02-09T14:52:15.006Z,30.52
2023-02-09T14:57:18.153Z,30.48
2023-02-09T15:02:23.725Z,29.67
2023-02-09T15:07:34.253Z,28.42
2023-02-09T15:12:36.642Z,28.75
2023-02-09T15:17:38.917Z,28.95
2023-02-09T15:22:42.979Z,32.65
2023-02-09T15:27:51.172Z,30.43
2023-02-09T15:32:54.129Z,27.92
2023-02-09T15:38:01.123Z,28.60
2023-02-09T15:43:10.400Z,29.48
2023-02-09T15:48:13.764Z,27.20
2023-02-09T15:53:19.164Z,32.37
2023-02-09T15:58:29.108Z,36.03
2023-02-09T16:03:37.401Z,37.78
2023-02-09T16:08:43.160Z,33.53
2023-02-09T16:13:45.458Z,35.05
2023-02-09T16:18:47.978Z,33.20
2023-02-09T16:23:53.719Z,29.48
2023-02-09T16:28:56.919Z,29.85
2023-02-09T16:33:59.256Z,27.67
2023-02-09T16:39:03.657Z,29.20
2023-02-09T16:44:16.984Z,29.87
2023-02-09T16:49:34.079Z,25.42
2023-02-09T16:54:43.778Z,25.05
2023-02-09T16:59:46.502Z,24.65
2023-02-09T17:04:48.954Z,22.60
2023-02-09T17:09:52.579Z,24.03
2023-02-09T17:14:55.014Z,23.50
2023-02-09T17:19:59.294Z,24.08
2023-02-09T17:25:03.258Z,21.63
2023-02-09T17:30:06.843Z,27.17
2023-02-09T17:35:15.631Z,26.33
2023-02-09T17:40:22.374Z,27.05
2023-02-09T17:45:26.346Z,23.20
2023-02-09T17:50:29.095Z,21.40
2023-02-09T17:55:33.250Z,23.17
2023-02-09T18:00:35.600Z,24.27
2023-02-09T18:05:38.092Z,24.13
2023-02-09T18:10:42.021Z,23.30
2023-02-09T18:15:45.787Z,22.67
2023-02-09T18:20:48.641Z,21.52
2023-02-09T18:25:52.484Z,21.63
2023-02-09T18:30:55.133Z,23.15
2023-02-09T18:35:57.443Z,23.67
2023-02-09T18:41:01.880Z,23.95
2023-02-09T18:46:04.635Z,22.58
2023-02-09T18:51:07.676Z,21.40
2023-02-09T18:56:17.994Z,23.63
2023-02-09T19:01:23.293Z,28.52
2023-02-09T19:06:25.920Z,24.00
2023-02-09T19:11:33.382Z,25.65
2023-02-09T19:16:41.849Z,28.40
2023-02-09T19:21:46.367Z,28.73
2023-02-09T19:26:50.292Z,25.48
2023-02-09T19:31:54.864Z,23.98
2023-02-09T19:36:57.601Z,22.42
2023-02-09T19:42:01.453Z,23.37
2023-02-09T19:47:04.033Z,23.67
2023-02-09T19:52:07.054Z,26.20
2023-02-09T19:57:11.043Z,26.25
2023-02-09T20:02:14.153Z,28.55
2023-02-09T20:07:16.526Z,24.40
2023-02-09T20:12:20.340Z,20.23
2023-02-09T20:17:22.699Z,28.50
2023-02-09T20:22:24.943Z,24.45
2023-02-09T20:27:29.144Z,23.30
2023-02-09T20:32:32.670Z,26.60
2023-02-09T20:37:34.857Z,22.55
2023-02-09T20:42:38.678Z,19.77
2023-02-09T20:47:41.291Z,18.55
2023-02-09T20:52:43.580Z,25.17
2023-02-09T20:57:47.655Z,21.73
2023-02-09T21:02:49.959Z,22.45
2023-02-09T21:07:52.347Z,22.95
2023-02-09T21:12:56.570Z,20.77
2023-02-09T21:17:58.823Z,20.17
2023-02-09T21:23:01.291Z,23.50
2023-02-09T21:28:05.527Z,19.63
2023-02-09T21:33:07.841Z,19.55
2023-02-09T21:38:10.155Z,20.80
2023-02-09T21:43:13.754Z,19.23
2023-02-09T21:48:16.218Z,19.40
2023-02-09T21:53:18.443Z,19.90
2023-02-09T21:58:21.989Z,18.23
2023-02-09T22:03:24.537Z,17.15
2023-02-09T22:08:28.298Z,18.08
2023-02-09T22:13:32.861Z,16.93
2023-02-09T22:18:36.202Z,17.38
2023-02-09T22:23:38.804Z,17.08
2023-02-09T22:28:43.175Z,17.88
2023-02-09T22:33:45.917Z,16.00
2023-02-09T22:38:48.043Z,16.80
2023-02-09T22:43:54.686Z,16.35
2023-02-09T22:48:59.404Z,15.57
2023-02-09T22:54:03.582Z,15.25
2023-02-09T22:59:08.237Z,13.63
2023-02-09T23:04:11.027Z,13.80
2023-02-09T23:09:14.242Z,13.57
2023-02-09T23:14:18.499Z,12.63
2023-02-09T23:19:21.055Z,15.00
2023-02-09T23:24:23.284Z,14.15
2023-02-09T23:29:26.848Z,11.57
2023-02-09T23:34:29.047Z,13.25
2023-02-09T23:39:31.295Z,12.40
2023-02-09T23:44:34.972Z,13.05
2023-02-09T23:49:37.224Z,14.35
2023-02-09T23:54:39.334Z,12.33
2023-02-09T23:59:42.812Z,11.85
